createdAt,value
2023-04-24T00:00:06.402Z,45.90
2023-04-24T00:05:10.133Z,45.90
2023-04-24T00:10:13.694Z,45.80
2023-04-24T00:15:17.989Z,45.90
2023-04-24T00:20:21.125Z,45.90
2023-04-24T00:25:24.091Z,45.90
2023-04-24T00:30:28.658Z,45.80
2023-04-24T00:35:31.538Z,45.90
2023-04-24T00:40:34.610Z,45.80
2023-04-24T00:45:38.890Z,45.80
2023-04-24T00:50:41.980Z,45.90
2023-04-24T00:55:45.355Z,45.80
2023-04-24T01:00:51.377Z,45.90
2023-04-24T01:05:54.605Z,45.90
2023-04-24T01:10:59.451Z,45.90
2023-04-24T01:16:04.039Z,45.90
2023-04-24T01:21:09.124Z,45.90
2023-04-24T01:26:14.498Z,45.90
2023-04-24T01:31:17.583Z,45.90
2023-04-24T01:36:21.112Z,45.90
2023-04-24T01:41:25.875Z,45.90
2023-04-24T01:46:29.990Z,45.90
2023-04-24T01:51:32.987Z,45.90
2023-04-24T01:56:38.504Z,45.90
2023-04-24T02:01:41.582Z,45.90
2023-04-24T02:06:44.505Z,45.90
2023-04-24T02:11:48.785Z,45.90
2023-04-24T02:16:51.797Z,45.90
2023-04-24T02:21:54.745Z,45.90
2023-04-24T02:26:58.987Z,45.90
2023-04-24T02:32:01.890Z,45.80
2023-04-24T02:37:04.924Z,45.90
2023-04-24T02:42:09.363Z,45.90
2023-04-24T02:47:12.221Z,45.90
2023-04-24T02:52:15.691Z,45.80
2023-04-24T02:57:19.960Z,45.80
2023-04-24T03:02:23.019Z,45.80
2023-04-24T03:07:26.113Z,45.80
2023-04-24T03:12:30.377Z,45.80
2023-04-24T03:17:33.672Z,45.80
2023-04-24T03:22:36.758Z,45.80
2023-04-24T03:27:41.255Z,45.80
2023-04-24T03:32:44.254Z,45.80
2023-04-24T03:37:47.248Z,45.80
2023-04-24T03:42:51.541Z,45.80
2023-04-24T03:47:54.424Z,45.80
2023-04-24T03:52:57.344Z,45.80
2023-04-24T03:58:01.794Z,45.80
2023-04-24T04:03:05.033Z,45.70
2023-04-24T04:08:08.193Z,45.80
2023-04-24T04:13:12.455Z,45.80
2023-04-24T04:18:15.431Z,45.80
2023-04-24T04:23:18.345Z,45.70
2023-04-24T04:28:22.645Z,45.70
2023-04-24T04:33:26.152Z,45.70
2023-04-24T04:38:30.941Z,45.70
2023-04-24T04:43:35.696Z,45.70
2023-04-24T04:48:38.996Z,45.70
2023-04-24T04:53:41.911Z,45.70
2023-04-24T04:58:46.227Z,45.70
2023-04-24T05:03:49.370Z,45.70
2023-04-24T05:08:56.966Z,45.70
2023-04-24T05:14:01.262Z,45.70
2023-04-24T05:19:04.182Z,45.70
2023-04-24T05:24:07.898Z,45.70
2023-04-24T05:29:12.831Z,45.70
2023-04-24T05:34:17.040Z,45.70
2023-04-24T05:39:20.692Z,45.70
2023-04-24T05:44:24.993Z,45.70
2023-04-24T05:49:27.960Z,45.70
2023-04-24T05:54:30.885Z,45.70
2023-04-24T05:59:35.176Z,45.70
2023-04-24T06:04:38.277Z,45.70
2023-04-24T06:09:41.509Z,45.70
2023-04-24T06:14:45.917Z,45.70
2023-04-24T06:19:48.869Z,45.70
2023-04-24T06:24:51.760Z,45.70
2023-04-24T06:29:56.412Z,45.60
2023-04-24T06:34:59.650Z,45.70
2023-04-24T06:40:02.741Z,45.60
2023-04-24T06:45:07.654Z,45.50
2023-04-24T06:50:12.399Z,45.60
2023-04-24T06:55:17.378Z,45.50
2023-04-24T07:00:21.910Z,45.50
2023-04-24T07:05:25.644Z,45.40
2023-04-24T07:10:29.704Z,45.20
2023-04-24T07:15:35.006Z,45.20
2023-04-24T07:20:37.861Z,45.00
2023-04-24T07:25:41.321Z,45.00
2023-04-24T07:30:46.064Z,44.90
2023-04-24T07:35:49.109Z,44.90
2023-04-24T07:40:52.022Z,44.80
2023-04-24T07:45:56.381Z,44.70
2023-04-24T07:50:59.328Z,44.70
2023-04-24T07:56:02.228Z,44.60
2023-04-24T08:01:06.637Z,44.50
2023-04-24T08:06:09.719Z,44.50
2023-04-24T08:11:12.612Z,44.40
2023-04-24T08:16:16.921Z,44.40
2023-04-24T08:21:20.770Z,44.40
2023-04-24T08:26:23.691Z,44.40
2023-04-24T08:31:28.124Z,44.40
2023-04-24T08:36:43.620Z,44.50
2023-04-24T08:41:50.881Z,44.50
2023-04-24T08:46:56.077Z,44.50
2023-04-24T08:52:00.713Z,44.50
2023-04-24T08:57:05.422Z,44.50
2023-04-24T09:02:13.014Z,44.50
2023-04-24T09:07:18.232Z,44.50
2023-04-24T09:12:21.369Z,44.50
2023-04-24T09:17:28.008Z,44.40
2023-04-24T09:22:32.295Z,44.40
2023-04-24T09:27:36.019Z,44.50
2023-04-24T09:32:40.762Z,44.40
2023-04-24T09:37:45.815Z,44.40
2023-04-24T09:42:54.226Z,44.40
2023-04-24T09:47:58.648Z,44.40
2023-04-24T09:53:04.690Z,44.40
2023-04-24T09:58:10.984Z,44.40
2023-04-24T10:03:15.513Z,44.40
2023-04-24T10:08:18.494Z,44.50
2023-04-24T10:13:21.741Z,44.30
2023-04-24T10:18:27.270Z,44.30
2023-04-24T10:23:31.279Z,44.20
2023-04-24T10:28:35.926Z,44.20
2023-04-24T10:33:42.417Z,44.20
2023-04-24T10:38:47.803Z,44.10
2023-04-24T10:43:51.987Z,44.20
2023-04-24T10:48:56.959Z,44.20
2023-04-24T10:53:59.876Z,44.20
2023-04-24T10:59:03.386Z,44.30
2023-04-24T11:04:07.755Z,44.30
2023-04-24T11:09:14.100Z,44.30
2023-04-24T11:14:17.803Z,44.30
2023-04-24T11:19:24.640Z,44.30
2023-04-24T11:24:33.037Z,44.20
2023-04-24T11:29:44.101Z,44.20
2023-04-24T11:34:50.714Z,44.20
2023-04-24T11:39:58.116Z,44.30
2023-04-24T11:45:03.097Z,44.30
2023-04-24T11:50:11.048Z,44.30
2023-04-24T11:55:27.205Z,44.30
2023-04-24T12:00:32.009Z,44.30
2023-04-24T12:05:36.787Z,44.30
2023-04-24T12:10:40.073Z,44.30
2023-04-24T12:15:43.355Z,44.30
2023-04-24T12:20:47.596Z,44.30
2023-04-24T12:25:53.516Z,44.30
2023-04-24T12:30:56.521Z,44.20
2023-04-24T12:36:00.936Z,44.20
2023-04-24T12:41:05.203Z,44.10
2023-04-24T12:46:08.150Z,44.10
2023-04-24T12:51:12.380Z,44.10
2023-04-24T12:56:15.287Z,44.10
2023-04-24T13:01:18.277Z,44.10
2023-04-24T13:06:23.001Z,44.00
2023-04-24T13:11:26.056Z,44.10
2023-04-24T13:16:29.003Z,44.10
2023-04-24T13:21:33.417Z,44.00
2023-04-24T13:26:36.290Z,44.00
2023-04-24T13:31:39.311Z,44.00
2023-04-24T13:36:43.797Z,43.90
2023-04-24T13:41:48.121Z,43.90
2023-04-24T13:46:53.034Z,43.90
2023-04-24T13:51:57.963Z,44.00
2023-04-24T13:57:01.478Z,43.90
2023-04-24T14:02:04.468Z,43.80
2023-04-24T14:07:09.041Z,43.80
2023-04-24T14:12:12.019Z,44.40
2023-04-24T14:17:14.918Z,43.80
2023-04-24T14:22:19.163Z,43.80
2023-04-24T14:27:22.053Z,43.90
2023-04-24T14:32:24.976Z,43.90
2023-04-24T14:37:29.280Z,43.90
2023-04-24T14:42:32.194Z,43.90
2023-04-24T14:47:35.124Z,43.90
2023-04-24T14:52:39.436Z,43.90
2023-04-24T14:57:42.623Z,43.90
2023-04-24T15:02:45.755Z,43.90
2023-04-24T15:07:50.268Z,43.90
2023-04-24T15:12:53.498Z,43.90
2023-04-24T15:17:56.624Z,43.90
2023-04-24T15:23:01.354Z,44.00
2023-04-24T15:28:04.355Z,44.00
2023-04-24T15:33:07.588Z,43.90
2023-04-24T15:38:11.960Z,43.90
2023-04-24T15:43:14.898Z,43.90
2023-04-24T15:48:18.760Z,43.90
2023-04-24T15:53:23.451Z,44.00
2023-04-24T15:58:26.498Z,44.00
2023-04-24T16:03:29.723Z,44.00
2023-04-24T16:08:34.114Z,44.00
2023-04-24T16:13:37.018Z,44.00
2023-04-24T16:18:40.032Z,44.00
2023-04-24T16:23:44.471Z,44.10
2023-04-24T16:28:47.637Z,44.10
2023-04-24T16:33:50.702Z,44.10
2023-04-24T16:38:55.774Z,44.10
2023-04-24T16:43:58.944Z,44.10
2023-04-24T16:49:01.874Z,44.10
2023-04-24T16:54:06.789Z,44.10
2023-04-24T16:59:09.761Z,44.10
2023-04-24T17:04:12.778Z,44.10
2023-04-24T17:09:17.480Z,44.20
2023-04-24T17:14:20.364Z,44.20
2023-04-24T17:19:23.553Z,44.20
2023-04-24T17:24:28.042Z,44.20
2023-04-24T17:29:31.822Z,44.20
2023-04-24T17:34:34.731Z,44.30
2023-04-24T17:39:39.017Z,44.30
2023-04-24T17:44:41.907Z,44.20
2023-04-24T17:49:44.835Z,44.20
2023-04-24T17:54:49.810Z,44.20
2023-04-24T17:59:52.759Z,44.20
2023-04-24T18:04:55.913Z,44.20
2023-04-24T18:10:00.290Z,44.20
2023-04-24T18:15:13.986Z,44.20
2023-04-24T18:20:19.509Z,44.20
2023-04-24T18:25:26.805Z,44.20
2023-04-24T18:30:31.163Z,44.20
2023-04-24T18:35:34.115Z,44.30
2023-04-24T18:40:38.467Z,44.20
2023-04-24T18:45:41.389Z,44.80
2023-04-24T18:50:44.992Z,44.30
2023-04-24T18:55:49.237Z,44.30
2023-04-24T19:00:52.206Z,44.30
2023-04-24T19:05:55.150Z,44.30
2023-04-24T19:10:59.690Z,44.30
2023-04-24T19:16:02.626Z,44.30
2023-04-24T19:21:05.772Z,44.20
2023-04-24T19:26:10.094Z,44.30
2023-04-24T19:31:12.995Z,44.20
2023-04-24T19:36:17.653Z,44.30
2023-04-24T19:41:21.964Z,44.20
2023-04-24T19:46:24.983Z,44.30
2023-04-24T19:51:27.949Z,44.20
2023-04-24T19:56:32.560Z,44.20
2023-04-24T20:01:35.643Z,44.20
2023-04-24T20:06:38.799Z,44.20
2023-04-24T20:11:43.114Z,44.20
2023-04-24T20:16:45.985Z,44.30
2023-04-24T20:21:49.229Z,44.30
2023-04-24T20:26:53.469Z,44.20
2023-04-24T20:31:56.644Z,44.10
2023-04-24T20:36:59.708Z,44.10
2023-04-24T20:42:04.608Z,44.10
2023-04-24T20:47:07.792Z,44.10
2023-04-24T20:52:10.812Z,44.10
2023-04-24T20:57:15.298Z,44.20
2023-04-24T21:02:18.280Z,44.10
2023-04-24T21:07:21.215Z,44.10
2023-04-24T21:12:25.834Z,44.10
2023-04-24T21:17:28.814Z,44.10
2023-04-24T21:22:31.724Z,44.10
2023-04-24T21:27:36.788Z,44.10
2023-04-24T21:32:40.471Z,44.10
2023-04-24T21:37:43.588Z,44.10
2023-04-24T21:42:47.897Z,44.10
2023-04-24T21:47:50.851Z,44.10
2023-04-24T21:52:54.274Z,44.10
2023-04-24T21:57:58.955Z,44.10
2023-04-24T22:03:01.959Z,44.10
2023-04-24T22:08:05.503Z,44.10
2023-04-24T22:13:09.945Z,44.10
2023-04-24T22:18:13.405Z,44.10
2023-04-24T22:23:16.426Z,44.10
2023-04-24T22:28:20.660Z,44.10
2023-04-24T22:33:23.662Z,44.00
2023-04-24T22:38:26.588Z,44.00
2023-04-24T22:43:31.527Z,44.00
2023-04-24T22:48:34.595Z,44.10
2023-04-24T22:53:37.702Z,44.00
2023-04-24T22:58:42.076Z,44.10
2023-04-24T23:03:45.125Z,44.10
2023-04-24T23:08:48.333Z,44.10
2023-04-24T23:13:52.626Z,44.10
2023-04-24T23:18:55.486Z,44.10
2023-04-24T23:23:58.388Z,44.10
2023-04-24T23:29:02.596Z,44.10
2023-04-24T23:34:05.464Z,44.10
2023-04-24T23:39:08.433Z,44.10
2023-04-24T23:44:12.797Z,44.10
2023-04-24T23:49:15.705Z,44.10
2023-04-24T23:54:18.686Z,44.10
2023-04-24T23:59:22.928Z,44.10
